Bullange, Belgium
Current Conditions -  °F | °C
As of 1:25 AM on Wednesday 22 Oct 2014 (Local Time) from EBLB Reporting Station
Broken Clouds Broken Clouds  
Wind Chill: 32°   Ceiling: 2400
Heat Index: 41°   Visibility: 6mi
Dew Point: 37°   Wind: 18mph
Humidity: 87%   Direction: 280°W
Pressure: 29.88"   Gusts: 31mph
Location:  50.41°N, 6.26°E
Report Text: EBLB 212325Z AUTO 28016G27KT 9999 FEW010/// SCT020/// BKN024/// 05/03 Q1012 WHT
Loading
Personal Weather Stations






























Interactive Weather Map
Tropical Storm Tracking
New forecast layout! Learn more

10-Day Weather Forecast

Advertisements
Track Severe Weather on mobile